sensor_id;sensor_type;location;lat;lon;timestamp;temperature;humidity
69677;DHT22;56914;51.058;9.326;2022-11-20T00:00:41;0.60;60.60
69677;DHT22;56914;51.058;9.326;2022-11-20T00:01:43;0.60;60.60
69677;DHT22;56914;51.058;9.326;2022-11-20T00:02:47;0.60;60.60
69677;DHT22;56914;51.058;9.326;2022-11-20T00:03:51;0.60;60.40
69677;DHT22;56914;51.058;9.326;2022-11-20T00:04:56;0.60;60.30
69677;DHT22;56914;51.058;9.326;2022-11-20T00:05:59;0.70;60.30
69677;DHT22;56914;51.058;9.326;2022-11-20T00:07:03;0.60;60.30
69677;DHT22;56914;51.058;9.326;2022-11-20T00:08:06;0.60;60.40
69677;DHT22;56914;51.058;9.326;2022-11-20T00:09:10;0.60;60.40
69677;DHT22;56914;51.058;9.326;2022-11-20T00:10:13;0.60;60.30
69677;DHT22;56914;51.058;9.326;2022-11-20T00:11:17;0.60;60.30
69677;DHT22;56914;51.058;9.326;2022-11-20T00:12:21;0.60;60.40
69677;DHT22;56914;51.058;9.326;2022-11-20T00:13:23;0.60;60.50
69677;DHT22;56914;51.058;9.326;2022-11-20T00:14:26;0.60;60.50
69677;DHT22;56914;51.058;9.326;2022-11-20T00:15:29;0.60;60.60
69677;DHT22;56914;51.058;9.326;2022-11-20T00:16:32;0.70;60.60
69677;DHT22;56914;51.058;9.326;2022-11-20T00:17:38;0.70;60.50
69677;DHT22;56914;51.058;9.326;2022-11-20T00:18:41;0.70;60.40
69677;DHT22;56914;51.058;9.326;2022-11-20T00:19:44;0.60;60.40
69677;DHT22;56914;51.058;9.326;2022-11-20T00:20:48;0.70;60.40
69677;DHT22;56914;51.058;9.326;2022-11-20T00:21:51;0.70;60.30
69677;DHT22;56914;51.058;9.326;2022-11-20T00:22:55;0.70;60.30
69677;DHT22;56914;51.058;9.326;2022-11-20T00:23:58;0.70;60.30
69677;DHT22;56914;51.058;9.326;2022-11-20T00:25:01;0.70;60.30
69677;DHT22;56914;51.058;9.326;2022-11-20T00:26:04;0.70;60.20
69677;DHT22;56914;51.058;9.326;2022-11-20T00:27:08;0.60;60.10
69677;DHT22;56914;51.058;9.326;2022-11-20T00:28:10;0.60;60.00
69677;DHT22;56914;51.058;9.326;2022-11-20T00:29:13;0.60;60.00
69677;DHT22;56914;51.058;9.326;2022-11-20T00:30:16;0.60;60.00
69677;DHT22;56914;51.058;9.326;2022-11-20T00:31:19;0.60;60.00
69677;DHT22;56914;51.058;9.326;2022-11-20T00:32:22;0.60;60.10
69677;DHT22;56914;51.058;9.326;2022-11-20T00:33:25;0.60;60.30
69677;DHT22;56914;51.058;9.326;2022-11-20T00:34:28;0.60;60.70
69677;DHT22;56914;51.058;9.326;2022-11-20T00:35:30;0.60;60.90
69677;DHT22;56914;51.058;9.326;2022-11-20T00:36:35;0.60;60.90
69677;DHT22;56914;51.058;9.326;2022-11-20T00:37:37;0.50;60.70
69677;DHT22;56914;51.058;9.326;2022-11-20T00:38:40;0.60;60.70
69677;DHT22;56914;51.058;9.326;2022-11-20T00:39:43;0.60;60.60
69677;DHT22;56914;51.058;9.326;2022-11-20T00:40:46;0.60;60.50
69677;DHT22;56914;51.058;9.326;2022-11-20T00:41:55;0.60;60.50
69677;DHT22;56914;51.058;9.326;2022-11-20T00:42:58;0.60;60.30
69677;DHT22;56914;51.058;9.326;2022-11-20T00:44:00;0.60;60.20
69677;DHT22;56914;51.058;9.326;2022-11-20T00:45:05;0.50;60.60
69677;DHT22;56914;51.058;9.326;2022-11-20T00:46:09;0.60;60.00
69677;DHT22;56914;51.058;9.326;2022-11-20T00:47:12;0.60;60.00
69677;DHT22;56914;51.058;9.326;2022-11-20T00:48:15;0.60;60.00
69677;DHT22;56914;51.058;9.326;2022-11-20T00:49:18;0.50;59.90
69677;DHT22;56914;51.058;9.326;2022-11-20T00:50:22;0.50;59.90
69677;DHT22;56914;51.058;9.326;2022-11-20T00:51:25;0.50;59.90
69677;DHT22;56914;51.058;9.326;2022-11-20T00:52:30;0.50;59.90
69677;DHT22;56914;51.058;9.326;2022-11-20T00:53:33;0.50;59.80
69677;DHT22;56914;51.058;9.326;2022-11-20T00:54:36;0.50;59.90
69677;DHT22;56914;51.058;9.326;2022-11-20T00:55:38;0.50;59.90
69677;DHT22;56914;51.058;9.326;2022-11-20T00:56:41;0.50;59.90
69677;DHT22;56914;51.058;9.326;2022-11-20T00:57:44;0.50;59.90
69677;DHT22;56914;51.058;9.326;2022-11-20T00:58:48;0.50;59.80
69677;DHT22;56914;51.058;9.326;2022-11-20T00:59:51;0.50;59.80
69677;DHT22;56914;51.058;9.326;2022-11-20T01:01:00;0.50;59.90
69677;DHT22;56914;51.058;9.326;2022-11-20T01:02:04;0.50;59.90
69677;DHT22;56914;51.058;9.326;2022-11-20T01:03:07;0.50;60.00
69677;DHT22;56914;51.058;9.326;2022-11-20T01:04:09;0.50;60.00
69677;DHT22;56914;51.058;9.326;2022-11-20T01:05:12;0.50;60.00
69677;DHT22;56914;51.058;9.326;2022-11-20T01:06:20;0.50;60.00
69677;DHT22;56914;51.058;9.326;2022-11-20T01:07:24;0.50;60.10
69677;DHT22;56914;51.058;9.326;2022-11-20T01:08:31;0.40;60.00
69677;DHT22;56914;51.058;9.326;2022-11-20T01:09:34;0.40;60.00
69677;DHT22;56914;51.058;9.326;2022-11-20T01:10:36;0.50;60.00
69677;DHT22;56914;51.058;9.326;2022-11-20T01:11:42;0.40;59.90
69677;DHT22;56914;51.058;9.326;2022-11-20T01:12:44;0.40;59.90
69677;DHT22;56914;51.058;9.326;2022-11-20T01:14:11;0.40;59.90
69677;DHT22;56914;51.058;9.326;2022-11-20T01:15:13;0.40;59.90
69677;DHT22;56914;51.058;9.326;2022-11-20T01:16:20;0.40;59.90
69677;DHT22;56914;51.058;9.326;2022-11-20T01:17:22;0.40;59.90
69677;DHT22;56914;51.058;9.326;2022-11-20T01:18:25;0.40;59.90
69677;DHT22;56914;51.058;9.326;2022-11-20T01:19:28;0.40;60.00
69677;DHT22;56914;51.058;9.326;2022-11-20T01:20:34;0.40;60.00
69677;DHT22;56914;51.058;9.326;2022-11-20T01:21:38;0.40;60.00
69677;DHT22;56914;51.058;9.326;2022-11-20T01:22:42;0.40;60.10
69677;DHT22;56914;51.058;9.326;2022-11-20T01:23:48;0.40;60.00
69677;DHT22;56914;51.058;9.326;2022-11-20T01:24:51;0.40;60.10
69677;DHT22;56914;51.058;9.326;2022-11-20T01:25:53;0.40;60.30
69677;DHT22;56914;51.058;9.326;2022-11-20T01:26:56;0.40;60.60
69677;DHT22;56914;51.058;9.326;2022-11-20T01:28:00;0.30;60.70
69677;DHT22;56914;51.058;9.326;2022-11-20T01:29:03;0.30;60.80
69677;DHT22;56914;51.058;9.326;2022-11-20T01:30:08;0.30;60.80
69677;DHT22;56914;51.058;9.326;2022-11-20T01:31:12;0.30;60.90
69677;DHT22;56914;51.058;9.326;2022-11-20T01:32:16;0.30;60.80
69677;DHT22;56914;51.058;9.326;2022-11-20T01:33:19;0.30;60.80
69677;DHT22;56914;51.058;9.326;2022-11-20T01:34:22;0.30;60.80
69677;DHT22;56914;51.058;9.326;2022-11-20T01:35:26;0.30;60.80
69677;DHT22;56914;51.058;9.326;2022-11-20T01:36:31;0.40;60.70
69677;DHT22;56914;51.058;9.326;2022-11-20T01:37:34;0.40;60.70
69677;DHT22;56914;51.058;9.326;2022-11-20T01:38:37;0.40;60.70
69677;DHT22;56914;51.058;9.326;2022-11-20T01:39:42;0.30;60.60
69677;DHT22;56914;51.058;9.326;2022-11-20T01:40:44;0.30;60.60
69677;DHT22;56914;51.058;9.326;2022-11-20T01:41:49;0.30;60.60
69677;DHT22;56914;51.058;9.326;2022-11-20T01:43:16;0.30;60.90
69677;DHT22;56914;51.058;9.326;2022-11-20T01:44:43;0.30;61.00
69677;DHT22;56914;51.058;9.326;2022-11-20T01:46:04;0.30;61.30
69677;DHT22;56914;51.058;9.326;2022-11-20T01:47:12;0.30;61.40
69677;DHT22;56914;51.058;9.326;2022-11-20T01:48:17;0.30;61.40
69677;DHT22;56914;51.058;9.326;2022-11-20T01:49:26;0.30;61.30
69677;DHT22;56914;51.058;9.326;2022-11-20T01:50:30;0.30;61.30
69677;DHT22;56914;51.058;9.326;2022-11-20T01:51:41;0.30;61.20
69677;DHT22;56914;51.058;9.326;2022-11-20T01:52:49;0.40;61.10
69677;DHT22;56914;51.058;9.326;2022-11-20T01:53:56;0.40;61.00
69677;DHT22;56914;51.058;9.326;2022-11-20T01:55:07;0.40;60.90
69677;DHT22;56914;51.058;9.326;2022-11-20T01:56:12;0.40;60.80
69677;DHT22;56914;51.058;9.326;2022-11-20T01:57:18;0.50;60.80
69677;DHT22;56914;51.058;9.326;2022-11-20T01:58:25;0.40;60.70
69677;DHT22;56914;51.058;9.326;2022-11-20T01:59:31;0.50;60.70
69677;DHT22;56914;51.058;9.326;2022-11-20T02:00:33;0.50;60.70
69677;DHT22;56914;51.058;9.326;2022-11-20T02:01:36;0.50;60.70
69677;DHT22;56914;51.058;9.326;2022-11-20T02:02:43;0.50;60.70
69677;DHT22;56914;51.058;9.326;2022-11-20T02:03:50;0.50;60.70
69677;DHT22;56914;51.058;9.326;2022-11-20T02:04:56;0.60;60.70
69677;DHT22;56914;51.058;9.326;2022-11-20T02:06:08;0.60;60.70
69677;DHT22;56914;51.058;9.326;2022-11-20T02:07:13;0.60;60.80
69677;DHT22;56914;51.058;9.326;2022-11-20T02:08:18;0.60;61.00
69677;DHT22;56914;51.058;9.326;2022-11-20T02:09:21;0.60;61.10
69677;DHT22;56914;51.058;9.326;2022-11-20T02:10:27;0.50;61.10
69677;DHT22;56914;51.058;9.326;2022-11-20T02:11:30;0.60;61.20
69677;DHT22;56914;51.058;9.326;2022-11-20T02:12:33;0.60;61.30
69677;DHT22;56914;51.058;9.326;2022-11-20T02:13:54;0.50;61.30
69677;DHT22;56914;51.058;9.326;2022-11-20T02:14:57;0.60;61.40
69677;DHT22;56914;51.058;9.326;2022-11-20T02:16:00;0.60;61.40
69677;DHT22;56914;51.058;9.326;2022-11-20T02:17:03;0.60;61.40
69677;DHT22;56914;51.058;9.326;2022-11-20T02:18:06;0.70;61.80
69677;DHT22;56914;51.058;9.326;2022-11-20T02:19:20;0.70;62.00
69677;DHT22;56914;51.058;9.326;2022-11-20T02:20:25;0.70;62.00
69677;DHT22;56914;51.058;9.326;2022-11-20T02:21:34;0.60;62.00
69677;DHT22;56914;51.058;9.326;2022-11-20T02:22:48;0.70;62.10
69677;DHT22;56914;51.058;9.326;2022-11-20T02:24:02;0.70;62.20
69677;DHT22;56914;51.058;9.326;2022-11-20T02:25:08;0.70;62.30
69677;DHT22;56914;51.058;9.326;2022-11-20T02:26:13;0.70;62.60
69677;DHT22;56914;51.058;9.326;2022-11-20T02:27:18;0.80;62.50
69677;DHT22;56914;51.058;9.326;2022-11-20T02:28:21;0.80;62.70
69677;DHT22;56914;51.058;9.326;2022-11-20T02:29:28;0.80;62.90
69677;DHT22;56914;51.058;9.326;2022-11-20T02:30:32;0.90;62.90
69677;DHT22;56914;51.058;9.326;2022-11-20T02:31:38;0.90;63.00
69677;DHT22;56914;51.058;9.326;2022-11-20T02:32:42;0.90;62.90
69677;DHT22;56914;51.058;9.326;2022-11-20T02:33:45;1.00;62.90
69677;DHT22;56914;51.058;9.326;2022-11-20T02:34:48;1.00;63.20
69677;DHT22;56914;51.058;9.326;2022-11-20T02:35:51;1.00;63.10
69677;DHT22;56914;51.058;9.326;2022-11-20T02:36:53;1.00;63.00
69677;DHT22;56914;51.058;9.326;2022-11-20T02:37:59;1.10;63.10
69677;DHT22;56914;51.058;9.326;2022-11-20T02:39:05;1.10;63.10
69677;DHT22;56914;51.058;9.326;2022-11-20T02:40:09;1.10;63.20
69677;DHT22;56914;51.058;9.326;2022-11-20T02:41:12;1.20;63.10
69677;DHT22;56914;51.058;9.326;2022-11-20T02:42:15;1.20;63.00
69677;DHT22;56914;51.058;9.326;2022-11-20T02:43:19;1.30;63.00
69677;DHT22;56914;51.058;9.326;2022-11-20T02:44:22;1.30;62.90
69677;DHT22;56914;51.058;9.326;2022-11-20T02:45:25;1.40;62.80
69677;DHT22;56914;51.058;9.326;2022-11-20T02:46:29;1.40;62.70
69677;DHT22;56914;51.058;9.326;2022-11-20T02:47:31;1.40;62.60
69677;DHT22;56914;51.058;9.326;2022-11-20T02:48:34;1.50;62.70
69677;DHT22;56914;51.058;9.326;2022-11-20T02:49:37;1.50;62.60
69677;DHT22;56914;51.058;9.326;2022-11-20T02:50:40;1.50;62.60
69677;DHT22;56914;51.058;9.326;2022-11-20T02:51:42;1.50;62.50
69677;DHT22;56914;51.058;9.326;2022-11-20T02:52:46;1.50;62.50
69677;DHT22;56914;51.058;9.326;2022-11-20T02:53:48;1.60;62.50
69677;DHT22;56914;51.058;9.326;2022-11-20T02:54:53;1.60;62.50
69677;DHT22;56914;51.058;9.326;2022-11-20T02:55:55;1.60;62.40
69677;DHT22;56914;51.058;9.326;2022-11-20T02:56:58;1.70;62.40
69677;DHT22;56914;51.058;9.326;2022-11-20T02:58:00;1.70;62.50
69677;DHT22;56914;51.058;9.326;2022-11-20T02:59:04;1.70;62.50
69677;DHT22;56914;51.058;9.326;2022-11-20T03:00:07;1.70;62.50
69677;DHT22;56914;51.058;9.326;2022-11-20T03:01:11;1.70;62.50
69677;DHT22;56914;51.058;9.326;2022-11-20T03:02:13;1.80;62.50
69677;DHT22;56914;51.058;9.326;2022-11-20T03:03:16;1.80;62.40
69677;DHT22;56914;51.058;9.326;2022-11-20T03:04:18;1.80;62.30
69677;DHT22;56914;51.058;9.326;2022-11-20T03:05:22;1.90;62.20
69677;DHT22;56914;51.058;9.326;2022-11-20T03:06:24;1.90;62.20
69677;DHT22;56914;51.058;9.326;2022-11-20T03:07:28;1.90;62.20
69677;DHT22;56914;51.058;9.326;2022-11-20T03:08:30;1.90;62.00
69677;DHT22;56914;51.058;9.326;2022-11-20T03:09:33;2.00;62.10
69677;DHT22;56914;51.058;9.326;2022-11-20T03:10:37;2.00;62.10
69677;DHT22;56914;51.058;9.326;2022-11-20T03:11:40;2.00;62.10
69677;DHT22;56914;51.058;9.326;2022-11-20T03:12:42;2.00;62.10
69677;DHT22;56914;51.058;9.326;2022-11-20T03:13:47;1.90;62.10
69677;DHT22;56914;51.058;9.326;2022-11-20T03:14:49;1.90;62.10
69677;DHT22;56914;51.058;9.326;2022-11-20T03:15:54;1.90;62.30
69677;DHT22;56914;51.058;9.326;2022-11-20T03:16:56;1.90;62.90
69677;DHT22;56914;51.058;9.326;2022-11-20T03:18:00;1.80;62.40
69677;DHT22;56914;51.058;9.326;2022-11-20T03:19:02;1.80;62.40
69677;DHT22;56914;51.058;9.326;2022-11-20T03:20:07;1.80;62.50
69677;DHT22;56914;51.058;9.326;2022-11-20T03:21:11;1.80;62.30
69677;DHT22;56914;51.058;9.326;2022-11-20T03:22:14;1.80;62.30
69677;DHT22;56914;51.058;9.326;2022-11-20T03:23:17;1.80;62.20
69677;DHT22;56914;51.058;9.326;2022-11-20T03:24:20;1.80;62.10
69677;DHT22;56914;51.058;9.326;2022-11-20T03:25:23;1.80;62.20
69677;DHT22;56914;51.058;9.326;2022-11-20T03:26:28;1.80;62.30
69677;DHT22;56914;51.058;9.326;2022-11-20T03:27:32;1.70;62.50
69677;DHT22;56914;51.058;9.326;2022-11-20T03:28:36;1.70;62.30
69677;DHT22;56914;51.058;9.326;2022-11-20T03:29:41;1.70;62.50
69677;DHT22;56914;51.058;9.326;2022-11-20T03:30:45;1.70;62.60
69677;DHT22;56914;51.058;9.326;2022-11-20T03:31:47;1.70;62.50
69677;DHT22;56914;51.058;9.326;2022-11-20T03:32:53;1.80;62.50
69677;DHT22;56914;51.058;9.326;2022-11-20T03:33:56;1.80;62.50
69677;DHT22;56914;51.058;9.326;2022-11-20T03:35:00;1.80;62.30
69677;DHT22;56914;51.058;9.326;2022-11-20T03:36:03;1.80;62.20
69677;DHT22;56914;51.058;9.326;2022-11-20T03:37:07;1.80;62.30
69677;DHT22;56914;51.058;9.326;2022-11-20T03:38:09;1.80;62.30
69677;DHT22;56914;51.058;9.326;2022-11-20T03:39:13;1.90;62.10
69677;DHT22;56914;51.058;9.326;2022-11-20T03:40:15;1.90;62.20
69677;DHT22;56914;51.058;9.326;2022-11-20T03:41:20;1.90;62.40
69677;DHT22;56914;51.058;9.326;2022-11-20T03:42:25;1.90;62.50
69677;DHT22;56914;51.058;9.326;2022-11-20T03:43:48;1.90;62.40
69677;DHT22;56914;51.058;9.326;2022-11-20T03:44:51;1.90;62.30
69677;DHT22;56914;51.058;9.326;2022-11-20T03:45:54;1.90;62.40
69677;DHT22;56914;51.058;9.326;2022-11-20T03:46:57;1.90;62.40
69677;DHT22;56914;51.058;9.326;2022-11-20T03:48:00;2.00;62.50
69677;DHT22;56914;51.058;9.326;2022-11-20T03:49:03;2.00;62.50
69677;DHT22;56914;51.058;9.326;2022-11-20T03:50:06;2.00;62.40
69677;DHT22;56914;51.058;9.326;2022-11-20T03:51:12;2.00;62.50
69677;DHT22;56914;51.058;9.326;2022-11-20T03:52:15;2.00;62.40
69677;DHT22;56914;51.058;9.326;2022-11-20T03:53:20;2.00;62.20
69677;DHT22;56914;51.058;9.326;2022-11-20T03:54:23;2.00;62.20
69677;DHT22;56914;51.058;9.326;2022-11-20T03:55:25;2.00;62.40
69677;DHT22;56914;51.058;9.326;2022-11-20T03:56:31;2.00;62.20
69677;DHT22;56914;51.058;9.326;2022-11-20T03:57:34;2.00;62.20
69677;DHT22;56914;51.058;9.326;2022-11-20T03:58:39;2.00;62.30
69677;DHT22;56914;51.058;9.326;2022-11-20T03:59:42;2.00;62.30
69677;DHT22;56914;51.058;9.326;2022-11-20T04:00:45;2.00;62.50
69677;DHT22;56914;51.058;9.326;2022-11-20T04:01:47;2.00;62.50
69677;DHT22;56914;51.058;9.326;2022-11-20T04:02:50;2.10;62.40
69677;DHT22;56914;51.058;9.326;2022-11-20T04:03:54;2.00;62.20
69677;DHT22;56914;51.058;9.326;2022-11-20T04:04:57;2.10;62.20
69677;DHT22;56914;51.058;9.326;2022-11-20T04:06:02;2.10;62.20
69677;DHT22;56914;51.058;9.326;2022-11-20T04:07:06;2.10;62.20
69677;DHT22;56914;51.058;9.326;2022-11-20T04:08:08;2.10;62.20
69677;DHT22;56914;51.058;9.326;2022-11-20T04:09:12;2.10;62.30
69677;DHT22;56914;51.058;9.326;2022-11-20T04:10:14;2.10;62.30
69677;DHT22;56914;51.058;9.326;2022-11-20T04:11:22;2.20;62.30
69677;DHT22;56914;51.058;9.326;2022-11-20T04:12:24;2.20;62.30
69677;DHT22;56914;51.058;9.326;2022-11-20T04:13:29;2.20;62.20
69677;DHT22;56914;51.058;9.326;2022-11-20T04:14:31;2.20;62.20
69677;DHT22;56914;51.058;9.326;2022-11-20T04:15:35;2.30;62.20
69677;DHT22;56914;51.058;9.326;2022-11-20T04:16:39;2.30;62.20
69677;DHT22;56914;51.058;9.326;2022-11-20T04:17:42;2.30;62.10
69677;DHT22;56914;51.058;9.326;2022-11-20T04:18:45;2.30;61.90
69677;DHT22;56914;51.058;9.326;2022-11-20T04:19:48;2.30;61.50
69677;DHT22;56914;51.058;9.326;2022-11-20T04:20:51;2.30;61.70
69677;DHT22;56914;51.058;9.326;2022-11-20T04:21:54;2.30;61.90
69677;DHT22;56914;51.058;9.326;2022-11-20T04:22:56;2.40;61.70
69677;DHT22;56914;51.058;9.326;2022-11-20T04:23:59;2.40;61.70
69677;DHT22;56914;51.058;9.326;2022-11-20T04:25:02;2.40;61.70
69677;DHT22;56914;51.058;9.326;2022-11-20T04:26:07;2.30;61.70
69677;DHT22;56914;51.058;9.326;2022-11-20T04:27:10;2.40;61.60
69677;DHT22;56914;51.058;9.326;2022-11-20T04:28:13;2.30;61.60
69677;DHT22;56914;51.058;9.326;2022-11-20T04:29:16;2.30;61.60
69677;DHT22;56914;51.058;9.326;2022-11-20T04:30:20;2.30;61.90
69677;DHT22;56914;51.058;9.326;2022-11-20T04:31:25;2.30;62.00
69677;DHT22;56914;51.058;9.326;2022-11-20T04:32:31;2.30;62.10
69677;DHT22;56914;51.058;9.326;2022-11-20T04:33:35;2.20;62.10
69677;DHT22;56914;51.058;9.326;2022-11-20T04:34:38;2.20;62.20
69677;DHT22;56914;51.058;9.326;2022-11-20T04:35:41;2.20;62.20
69677;DHT22;56914;51.058;9.326;2022-11-20T04:36:44;2.20;62.20
69677;DHT22;56914;51.058;9.326;2022-11-20T04:37:46;2.20;62.40
69677;DHT22;56914;51.058;9.326;2022-11-20T04:38:50;2.20;62.60
69677;DHT22;56914;51.058;9.326;2022-11-20T04:39:58;2.10;62.60
69677;DHT22;56914;51.058;9.326;2022-11-20T04:41:03;2.10;62.70
69677;DHT22;56914;51.058;9.326;2022-11-20T04:42:08;2.10;62.80
69677;DHT22;56914;51.058;9.326;2022-11-20T04:43:31;2.10;62.90
69677;DHT22;56914;51.058;9.326;2022-11-20T04:44:36;2.10;62.90
69677;DHT22;56914;51.058;9.326;2022-11-20T04:45:38;2.10;62.90
69677;DHT22;56914;51.058;9.326;2022-11-20T04:46:42;2.10;62.90
69677;DHT22;56914;51.058;9.326;2022-11-20T04:47:44;2.10;62.80
69677;DHT22;56914;51.058;9.326;2022-11-20T04:48:48;2.10;62.80
69677;DHT22;56914;51.058;9.326;2022-11-20T04:49:50;2.10;63.30
69677;DHT22;56914;51.058;9.326;2022-11-20T04:50:54;2.10;62.80
69677;DHT22;56914;51.058;9.326;2022-11-20T04:51:56;2.10;62.80
69677;DHT22;56914;51.058;9.326;2022-11-20T04:53:00;2.20;62.80
69677;DHT22;56914;51.058;9.326;2022-11-20T04:54:03;2.20;62.40
69677;DHT22;56914;51.058;9.326;2022-11-20T04:55:06;2.20;62.70
69677;DHT22;56914;51.058;9.326;2022-11-20T04:56:11;2.20;62.80
69677;DHT22;56914;51.058;9.326;2022-11-20T04:57:15;2.20;62.60
69677;DHT22;56914;51.058;9.326;2022-11-20T04:58:18;2.20;62.50
69677;DHT22;56914;51.058;9.326;2022-11-20T04:59:20;2.20;62.50
69677;DHT22;56914;51.058;9.326;2022-11-20T05:00:25;2.30;62.50
69677;DHT22;56914;51.058;9.326;2022-11-20T05:01:28;2.30;62.60
69677;DHT22;56914;51.058;9.326;2022-11-20T05:02:34;2.30;62.60
69677;DHT22;56914;51.058;9.326;2022-11-20T05:03:36;2.30;62.50
69677;DHT22;56914;51.058;9.326;2022-11-20T05:04:43;2.40;62.60
69677;DHT22;56914;51.058;9.326;2022-11-20T05:05:46;2.40;62.40
69677;DHT22;56914;51.058;9.326;2022-11-20T05:06:50;2.40;62.30
69677;DHT22;56914;51.058;9.326;2022-11-20T05:07:56;2.40;62.20
69677;DHT22;56914;51.058;9.326;2022-11-20T05:09:00;2.40;62.30
69677;DHT22;56914;51.058;9.326;2022-11-20T05:10:04;2.40;62.10
69677;DHT22;56914;51.058;9.326;2022-11-20T05:11:09;2.40;62.30
69677;DHT22;56914;51.058;9.326;2022-11-20T05:12:12;2.40;62.30
69677;DHT22;56914;51.058;9.326;2022-11-20T05:13:15;2.30;62.30
69677;DHT22;56914;51.058;9.326;2022-11-20T05:14:18;2.30;62.30
69677;DHT22;56914;51.058;9.326;2022-11-20T05:15:20;2.30;62.40
69677;DHT22;56914;51.058;9.326;2022-11-20T05:16:26;2.30;62.30
69677;DHT22;56914;51.058;9.326;2022-11-20T05:17:28;2.30;62.50
69677;DHT22;56914;51.058;9.326;2022-11-20T05:18:31;2.30;62.50
69677;DHT22;56914;51.058;9.326;2022-11-20T05:19:36;2.30;62.60
69677;DHT22;56914;51.058;9.326;2022-11-20T05:20:39;2.40;62.60
69677;DHT22;56914;51.058;9.326;2022-11-20T05:21:41;2.30;62.30
69677;DHT22;56914;51.058;9.326;2022-11-20T05:22:47;2.30;62.30
69677;DHT22;56914;51.058;9.326;2022-11-20T05:23:50;2.30;62.50
69677;DHT22;56914;51.058;9.326;2022-11-20T05:24:53;2.40;62.70
69677;DHT22;56914;51.058;9.326;2022-11-20T05:25:56;2.40;62.70
69677;DHT22;56914;51.058;9.326;2022-11-20T05:27:00;2.40;62.60
69677;DHT22;56914;51.058;9.326;2022-11-20T05:28:02;2.40;62.30
69677;DHT22;56914;51.058;9.326;2022-11-20T05:29:06;2.50;62.30
69677;DHT22;56914;51.058;9.326;2022-11-20T05:30:12;2.50;62.30
69677;DHT22;56914;51.058;9.326;2022-11-20T05:31:18;2.50;62.40
69677;DHT22;56914;51.058;9.326;2022-11-20T05:32:29;2.50;62.10
69677;DHT22;56914;51.058;9.326;2022-11-20T05:33:35;2.50;62.10
69677;DHT22;56914;51.058;9.326;2022-11-20T05:34:38;2.50;62.20
69677;DHT22;56914;51.058;9.326;2022-11-20T05:35:41;2.50;62.30
69677;DHT22;56914;51.058;9.326;2022-11-20T05:36:44;2.50;62.30
69677;DHT22;56914;51.058;9.326;2022-11-20T05:37:47;2.50;62.40
69677;DHT22;56914;51.058;9.326;2022-11-20T05:38:49;2.50;62.40
69677;DHT22;56914;51.058;9.326;2022-11-20T05:39:59;2.60;62.30
69677;DHT22;56914;51.058;9.326;2022-11-20T05:41:05;2.60;62.20
69677;DHT22;56914;51.058;9.326;2022-11-20T05:42:08;2.60;62.30
69677;DHT22;56914;51.058;9.326;2022-11-20T05:43:32;2.60;62.30
69677;DHT22;56914;51.058;9.326;2022-11-20T05:44:36;2.60;62.40
69677;DHT22;56914;51.058;9.326;2022-11-20T05:45:39;2.60;61.70
69677;DHT22;56914;51.058;9.326;2022-11-20T05:46:42;2.50;62.10
69677;DHT22;56914;51.058;9.326;2022-11-20T05:47:46;2.50;61.80
69677;DHT22;56914;51.058;9.326;2022-11-20T05:48:49;2.50;62.10
69677;DHT22;56914;51.058;9.326;2022-11-20T05:49:51;2.50;62.10
69677;DHT22;56914;51.058;9.326;2022-11-20T05:50:56;2.50;62.20
69677;DHT22;56914;51.058;9.326;2022-11-20T05:51:58;2.50;62.30
69677;DHT22;56914;51.058;9.326;2022-11-20T05:53:01;2.50;62.40
69677;DHT22;56914;51.058;9.326;2022-11-20T05:54:04;2.50;62.40
69677;DHT22;56914;51.058;9.326;2022-11-20T05:55:08;2.50;62.50
69677;DHT22;56914;51.058;9.326;2022-11-20T05:56:12;2.60;62.50
69677;DHT22;56914;51.058;9.326;2022-11-20T05:57:16;2.60;62.50
69677;DHT22;56914;51.058;9.326;2022-11-20T05:58:18;2.70;62.50
69677;DHT22;56914;51.058;9.326;2022-11-20T05:59:22;2.80;62.50
69677;DHT22;56914;51.058;9.326;2022-11-20T06:00:25;2.80;62.10
69677;DHT22;56914;51.058;9.326;2022-11-20T06:01:28;2.70;61.90
69677;DHT22;56914;51.058;9.326;2022-11-20T06:02:31;2.70;61.80
69677;DHT22;56914;51.058;9.326;2022-11-20T06:03:39;2.70;61.90
69677;DHT22;56914;51.058;9.326;2022-11-20T06:04:41;2.70;62.10
69677;DHT22;56914;51.058;9.326;2022-11-20T06:05:45;2.70;62.10
69677;DHT22;56914;51.058;9.326;2022-11-20T06:06:47;2.70;62.10
69677;DHT22;56914;51.058;9.326;2022-11-20T06:07:50;2.70;62.20
69677;DHT22;56914;51.058;9.326;2022-11-20T06:08:54;2.70;62.20
69677;DHT22;56914;51.058;9.326;2022-11-20T06:09:57;2.70;62.50
69677;DHT22;56914;51.058;9.326;2022-11-20T06:11:04;2.70;62.50
69677;DHT22;56914;51.058;9.326;2022-11-20T06:12:07;2.70;62.60
69677;DHT22;56914;51.058;9.326;2022-11-20T06:13:09;2.60;62.60
69677;DHT22;56914;51.058;9.326;2022-11-20T06:14:12;2.60;62.70
69677;DHT22;56914;51.058;9.326;2022-11-20T06:15:15;2.60;62.90
69677;DHT22;56914;51.058;9.326;2022-11-20T06:16:20;2.60;63.00
69677;DHT22;56914;51.058;9.326;2022-11-20T06:17:23;2.60;63.20
69677;DHT22;56914;51.058;9.326;2022-11-20T06:18:27;2.50;63.40
69677;DHT22;56914;51.058;9.326;2022-11-20T06:19:31;2.50;63.40
69677;DHT22;56914;51.058;9.326;2022-11-20T06:20:34;2.50;63.40
69677;DHT22;56914;51.058;9.326;2022-11-20T06:21:43;2.50;63.50
69677;DHT22;56914;51.058;9.326;2022-11-20T06:22:46;2.50;63.50
69677;DHT22;56914;51.058;9.326;2022-11-20T06:23:49;2.60;63.50
69677;DHT22;56914;51.058;9.326;2022-11-20T06:24:53;2.60;63.40
69677;DHT22;56914;51.058;9.326;2022-11-20T06:25:55;2.60;63.10
69677;DHT22;56914;51.058;9.326;2022-11-20T06:26:58;2.60;63.00
69677;DHT22;56914;51.058;9.326;2022-11-20T06:28:01;2.60;63.00
69677;DHT22;56914;51.058;9.326;2022-11-20T06:29:03;2.60;63.10
69677;DHT22;56914;51.058;9.326;2022-11-20T06:30:08;2.70;63.30
69677;DHT22;56914;51.058;9.326;2022-11-20T06:31:13;2.60;63.10
69677;DHT22;56914;51.058;9.326;2022-11-20T06:32:17;2.60;63.20
69677;DHT22;56914;51.058;9.326;2022-11-20T06:33:19;2.50;63.30
69677;DHT22;56914;51.058;9.326;2022-11-20T06:34:22;2.60;63.50
69677;DHT22;56914;51.058;9.326;2022-11-20T06:35:26;2.60;63.40
69677;DHT22;56914;51.058;9.326;2022-11-20T06:36:29;2.70;63.40
69677;DHT22;56914;51.058;9.326;2022-11-20T06:37:31;2.70;63.30
69677;DHT22;56914;51.058;9.326;2022-11-20T06:38:34;2.70;63.30
69677;DHT22;56914;51.058;9.326;2022-11-20T06:39:36;2.70;63.30
69677;DHT22;56914;51.058;9.326;2022-11-20T06:40:40;2.80;63.30
69677;DHT22;56914;51.058;9.326;2022-11-20T06:41:42;2.80;63.30
69677;DHT22;56914;51.058;9.326;2022-11-20T06:42:45;2.90;63.20
69677;DHT22;56914;51.058;9.326;2022-11-20T06:43:48;2.90;63.10
69677;DHT22;56914;51.058;9.326;2022-11-20T06:44:51;3.00;63.00
69677;DHT22;56914;51.058;9.326;2022-11-20T06:45:54;3.00;62.60
69677;DHT22;56914;51.058;9.326;2022-11-20T06:46:57;3.00;62.50
69677;DHT22;56914;51.058;9.326;2022-11-20T06:47:59;3.00;62.30
69677;DHT22;56914;51.058;9.326;2022-11-20T06:49:03;3.00;62.50
69677;DHT22;56914;51.058;9.326;2022-11-20T06:50:06;3.00;62.10
69677;DHT22;56914;51.058;9.326;2022-11-20T06:51:10;2.90;62.20
69677;DHT22;56914;51.058;9.326;2022-11-20T06:52:14;2.90;62.50